createdAt,value
2022-09-15T00:00:12.812Z,90.60
2022-09-15T00:00:44.419Z,90.60
2022-09-15T00:01:16.065Z,90.60
2022-09-15T00:01:47.735Z,90.60
2022-09-15T00:02:19.438Z,90.80
2022-09-15T00:02:51.151Z,90.60
2022-09-15T00:03:22.841Z,90.60
2022-09-15T00:03:54.444Z,90.60
2022-09-15T00:04:25.989Z,90.60
2022-09-15T00:04:57.545Z,90.60
2022-09-15T00:05:29.156Z,90.60
2022-09-15T00:06:00.738Z,90.60
2022-09-15T00:06:32.269Z,90.60
2022-09-15T00:07:03.845Z,90.60
2022-09-15T00:07:35.418Z,90.60
2022-09-15T00:08:06.974Z,90.60
2022-09-15T00:08:38.545Z,90.60
2022-09-15T00:09:10.094Z,90.60
2022-09-15T00:09:41.646Z,90.60
2022-09-15T00:10:13.190Z,90.60
2022-09-15T00:10:44.746Z,90.60
2022-09-15T00:11:16.283Z,90.60
2022-09-15T00:11:47.847Z,90.60
2022-09-15T00:12:19.522Z,90.60
2022-09-15T00:12:51.137Z,90.60
2022-09-15T00:13:22.696Z,90.60
2022-09-15T00:13:54.251Z,90.60
2022-09-15T00:14:25.815Z,90.60
2022-09-15T00:14:57.386Z,90.60
2022-09-15T00:15:28.944Z,91.00
2022-09-15T00:16:00.558Z,90.70
2022-09-15T00:16:32.145Z,90.70
2022-09-15T00:17:03.788Z,90.70
2022-09-15T00:17:35.413Z,90.60
2022-09-15T00:18:06.961Z,90.60
2022-09-15T00:18:38.513Z,90.60
2022-09-15T00:19:10.061Z,90.60
2022-09-15T00:19:41.626Z,91.00
2022-09-15T00:20:13.174Z,90.60
2022-09-15T00:20:44.722Z,90.60
2022-09-15T00:21:16.262Z,90.60
2022-09-15T00:21:47.839Z,90.60
2022-09-15T00:22:19.402Z,90.60
2022-09-15T00:22:50.974Z,90.60
2022-09-15T00:23:22.530Z,90.60
2022-09-15T00:23:54.086Z,90.60
2022-09-15T00:24:25.652Z,90.60
2022-09-15T00:24:57.265Z,90.60
2022-09-15T00:25:28.815Z,90.60
2022-09-15T00:26:00.395Z,90.60
2022-09-15T00:26:31.960Z,90.60
2022-09-15T00:27:03.519Z,90.60
2022-09-15T00:27:35.071Z,90.60
2022-09-15T00:28:06.632Z,90.60
2022-09-15T00:28:38.199Z,90.60
2022-09-15T00:29:09.807Z,90.60
2022-09-15T00:29:41.365Z,90.60
2022-09-15T00:30:12.919Z,90.60
2022-09-15T00:30:44.473Z,90.60
2022-09-15T00:31:16.150Z,90.50
2022-09-15T00:31:47.771Z,90.50
2022-09-15T00:32:19.318Z,90.50
2022-09-15T00:32:50.871Z,90.50
2022-09-15T00:33:22.454Z,90.50
2022-09-15T00:33:54.017Z,90.60
2022-09-15T00:34:25.597Z,90.60
2022-09-15T00:34:57.158Z,90.60
2022-09-15T00:35:28.723Z,90.60
2022-09-15T00:36:00.260Z,90.50
2022-09-15T00:36:31.819Z,90.50
2022-09-15T00:37:03.395Z,90.50
2022-09-15T00:37:34.947Z,90.50
2022-09-15T00:38:06.486Z,90.50
2022-09-15T00:38:38.033Z,90.60
2022-09-15T00:39:09.580Z,90.50
2022-09-15T00:39:41.123Z,90.60
2022-09-15T00:40:12.737Z,90.50
2022-09-15T00:40:44.299Z,90.50
2022-09-15T00:41:15.868Z,90.50
2022-09-15T00:41:47.416Z,90.50
2022-09-15T00:42:18.962Z,90.50
2022-09-15T00:42:50.506Z,90.50
2022-09-15T00:43:22.057Z,90.50
2022-09-15T00:43:53.646Z,90.50
2022-09-15T00:44:25.213Z,90.50
2022-09-15T00:44:56.777Z,90.50
2022-09-15T00:45:28.343Z,90.50
2022-09-15T00:45:59.960Z,90.50
2022-09-15T00:46:31.550Z,90.50
2022-09-15T00:47:18.777Z,90.50
2022-09-15T00:47:51.024Z,90.50
2022-09-15T00:48:22.582Z,90.50
2022-09-15T00:48:54.131Z,90.50
2022-09-15T00:49:25.701Z,90.50
2022-09-15T00:49:59.422Z,90.50
2022-09-15T00:50:31.135Z,90.50
2022-09-15T00:51:02.679Z,90.50
2022-09-15T00:51:34.264Z,90.50
2022-09-15T00:52:05.812Z,90.50
2022-09-15T00:52:37.350Z,90.40
2022-09-15T00:53:08.892Z,90.40
2022-09-15T00:53:40.491Z,90.40
2022-09-15T00:54:12.120Z,90.40
2022-09-15T00:54:43.677Z,90.40
2022-09-15T00:55:15.210Z,90.40
2022-09-15T00:55:46.749Z,90.40
2022-09-15T00:56:18.294Z,90.40
2022-09-15T00:56:49.866Z,90.40
2022-09-15T00:57:21.409Z,90.40
2022-09-15T00:57:52.949Z,90.40
2022-09-15T00:58:24.515Z,90.40
2022-09-15T00:58:56.106Z,90.40
2022-09-15T00:59:27.674Z,90.40
2022-09-15T00:59:59.227Z,90.40
2022-09-15T01:00:30.787Z,90.40
2022-09-15T01:01:02.396Z,90.40
2022-09-15T01:01:34.077Z,90.50
2022-09-15T01:02:05.790Z,90.40
2022-09-15T01:02:37.460Z,90.40
2022-09-15T01:03:09.079Z,90.40
2022-09-15T01:03:40.631Z,90.40
2022-09-15T01:04:12.175Z,90.40
2022-09-15T01:04:43.740Z,90.40
2022-09-15T01:05:15.297Z,90.40
2022-09-15T01:05:46.860Z,90.40
2022-09-15T01:06:18.418Z,90.40
2022-09-15T01:06:49.972Z,90.40
2022-09-15T01:07:24.358Z,90.40
2022-09-15T01:07:55.914Z,90.40
2022-09-15T01:08:27.481Z,90.40
2022-09-15T01:08:59.029Z,90.40
2022-09-15T01:09:30.579Z,90.40
2022-09-15T01:10:02.141Z,90.40
2022-09-15T01:10:33.709Z,90.40
2022-09-15T01:11:05.251Z,90.40
2022-09-15T01:11:36.807Z,90.40
2022-09-15T01:12:08.358Z,90.40
2022-09-15T01:12:39.912Z,90.40
2022-09-15T01:13:11.466Z,90.40
2022-09-15T01:13:43.014Z,90.40
2022-09-15T01:14:14.556Z,90.40
2022-09-15T01:14:46.124Z,90.30
2022-09-15T01:15:17.685Z,90.30
2022-09-15T01:15:49.247Z,90.30
2022-09-15T01:16:20.841Z,90.30
2022-09-15T01:16:52.474Z,90.30
2022-09-15T01:17:24.064Z,90.30
2022-09-15T01:17:55.632Z,90.30
2022-09-15T01:18:27.184Z,90.40
2022-09-15T01:18:58.721Z,90.30
2022-09-15T01:19:30.277Z,90.30
2022-09-15T01:20:01.839Z,90.30
2022-09-15T01:20:33.401Z,90.40
2022-09-15T01:21:04.954Z,90.30
2022-09-15T01:21:36.529Z,90.30
2022-09-15T01:22:08.108Z,90.40
2022-09-15T01:22:39.639Z,90.30
2022-09-15T01:23:11.176Z,90.40
2022-09-15T01:23:42.733Z,90.30
2022-09-15T01:24:14.281Z,90.40
2022-09-15T01:24:45.836Z,90.40
2022-09-15T01:25:17.385Z,90.40
2022-09-15T01:25:48.998Z,90.30
2022-09-15T01:26:20.563Z,90.30
2022-09-15T01:26:52.160Z,90.30
2022-09-15T01:27:41.224Z,90.30
2022-09-15T01:28:13.480Z,90.30
2022-09-15T01:28:45.039Z,90.30
2022-09-15T01:29:16.624Z,90.30
2022-09-15T01:29:48.255Z,90.30
2022-09-15T01:30:19.811Z,90.30
2022-09-15T01:30:51.364Z,90.30
2022-09-15T01:31:22.936Z,90.30
2022-09-15T01:31:54.530Z,90.30
2022-09-15T01:32:26.105Z,90.30
2022-09-15T01:32:57.653Z,90.30
2022-09-15T01:33:29.202Z,90.30
2022-09-15T01:34:00.723Z,90.30
2022-09-15T01:34:32.308Z,90.30
2022-09-15T01:35:03.862Z,90.30
2022-09-15T01:35:35.418Z,90.30
2022-09-15T01:36:06.971Z,90.30
2022-09-15T01:36:38.518Z,90.30
2022-09-15T01:37:10.068Z,90.20
2022-09-15T01:37:41.632Z,90.20
2022-09-15T01:38:13.194Z,90.30
2022-09-15T01:38:44.854Z,90.30
2022-09-15T01:39:16.463Z,90.30
2022-09-15T01:39:48.233Z,90.30
2022-09-15T01:40:19.952Z,90.30
2022-09-15T01:40:51.573Z,90.30
2022-09-15T01:41:23.120Z,90.30
2022-09-15T01:41:54.656Z,90.30
2022-09-15T01:42:26.236Z,90.30
2022-09-15T01:42:57.776Z,90.30
2022-09-15T01:43:29.341Z,90.30
2022-09-15T01:44:00.908Z,90.70
2022-09-15T01:44:32.469Z,90.30
2022-09-15T01:45:04.015Z,90.30
2022-09-15T01:45:35.639Z,90.30
2022-09-15T01:46:07.252Z,90.30
2022-09-15T01:46:38.855Z,90.30
2022-09-15T01:47:10.395Z,90.30
2022-09-15T01:47:41.947Z,90.30
2022-09-15T01:48:13.494Z,90.30
2022-09-15T01:48:45.041Z,90.30
2022-09-15T01:49:16.624Z,90.30
2022-09-15T01:49:48.182Z,90.30
2022-09-15T01:50:19.731Z,90.30
2022-09-15T01:50:51.291Z,90.30
2022-09-15T01:51:22.819Z,90.30
2022-09-15T01:51:54.370Z,90.30
2022-09-15T01:52:25.927Z,90.30
2022-09-15T01:52:57.480Z,90.30
2022-09-15T01:53:29.035Z,90.30
2022-09-15T01:54:00.575Z,90.40
2022-09-15T01:54:32.132Z,90.30
2022-09-15T01:55:03.673Z,90.30
2022-09-15T01:55:35.233Z,90.30
2022-09-15T01:56:06.816Z,90.30
2022-09-15T01:56:38.369Z,90.30
2022-09-15T01:57:09.924Z,90.30
2022-09-15T01:57:41.471Z,90.30
2022-09-15T01:58:13.034Z,90.30
2022-09-15T01:58:44.622Z,90.30
2022-09-15T01:59:16.166Z,90.30
2022-09-15T01:59:47.755Z,90.30
2022-09-15T02:00:19.307Z,90.30
2022-09-15T02:00:50.916Z,90.30
2022-09-15T02:01:22.627Z,90.30
2022-09-15T02:01:54.355Z,90.30
2022-09-15T02:02:26.155Z,90.30
2022-09-15T02:02:57.755Z,90.30
2022-09-15T02:03:29.308Z,90.30
2022-09-15T02:04:00.861Z,90.30
2022-09-15T02:04:32.431Z,90.30
2022-09-15T02:05:03.980Z,90.30
2022-09-15T02:05:35.512Z,90.30
2022-09-15T02:06:07.052Z,90.30
2022-09-15T02:06:38.595Z,90.30
2022-09-15T02:07:10.164Z,90.60
2022-09-15T02:07:41.712Z,90.30
2022-09-15T02:08:13.264Z,90.30
2022-09-15T02:08:44.882Z,90.30
2022-09-15T02:09:16.497Z,90.30
2022-09-15T02:09:48.045Z,90.30
2022-09-15T02:10:19.617Z,90.30
2022-09-15T02:10:51.176Z,90.30
2022-09-15T02:11:22.730Z,90.30
2022-09-15T02:11:54.278Z,90.30
2022-09-15T02:12:25.824Z,90.30
2022-09-15T02:12:57.358Z,90.30
2022-09-15T02:13:28.918Z,90.30
2022-09-15T02:14:03.138Z,90.30
2022-09-15T02:14:34.715Z,90.30
2022-09-15T02:15:06.263Z,90.40
2022-09-15T02:15:37.806Z,90.30
2022-09-15T02:16:09.392Z,90.40
2022-09-15T02:16:41.008Z,90.40
2022-09-15T02:17:12.613Z,90.40
2022-09-15T02:17:44.153Z,90.40
2022-09-15T02:18:15.709Z,90.40
2022-09-15T02:18:47.264Z,90.40
2022-09-15T02:19:18.820Z,90.40
2022-09-15T02:19:50.373Z,90.30
2022-09-15T02:20:21.918Z,90.30
2022-09-15T02:20:53.496Z,90.30
2022-09-15T02:21:25.045Z,90.30
2022-09-15T02:21:56.588Z,90.40
2022-09-15T02:22:28.140Z,90.30
2022-09-15T02:22:59.682Z,90.30
2022-09-15T02:23:31.242Z,90.30
2022-09-15T02:24:02.786Z,90.30
2022-09-15T02:24:34.362Z,90.30
2022-09-15T02:25:05.909Z,90.30
2022-09-15T02:25:37.462Z,90.30
2022-09-15T02:26:09.056Z,90.30
2022-09-15T02:26:40.635Z,90.20
2022-09-15T02:27:12.185Z,90.20
2022-09-15T02:27:43.735Z,90.30
2022-09-15T02:28:15.288Z,90.30
2022-09-15T02:28:46.865Z,90.30
2022-09-15T02:29:18.438Z,90.30
2022-09-15T02:29:50.004Z,90.30
2022-09-15T02:30:21.540Z,90.30
2022-09-15T02:30:53.108Z,90.30
2022-09-15T02:31:24.732Z,90.30
2022-09-15T02:31:56.431Z,90.30
2022-09-15T02:32:28.029Z,90.30
2022-09-15T02:32:59.576Z,90.30
2022-09-15T02:33:31.133Z,90.30
2022-09-15T02:34:02.698Z,90.30
2022-09-15T02:34:34.257Z,90.30
2022-09-15T02:35:05.801Z,90.30
2022-09-15T02:35:37.354Z,90.30
2022-09-15T02:36:08.938Z,90.30
2022-09-15T02:36:40.493Z,90.30
2022-09-15T02:37:12.042Z,90.30
2022-09-15T02:37:43.590Z,90.30
2022-09-15T02:38:15.148Z,90.30
2022-09-15T02:38:46.694Z,90.30
2022-09-15T02:39:18.247Z,90.30
2022-09-15T02:39:49.908Z,90.30
2022-09-15T02:40:21.529Z,90.30
2022-09-15T02:40:53.123Z,90.30
2022-09-15T02:41:24.671Z,90.30
2022-09-15T02:41:56.206Z,90.30
2022-09-15T02:42:27.748Z,90.30
2022-09-15T02:42:59.291Z,90.30
2022-09-15T02:43:30.833Z,90.30
2022-09-15T02:44:02.376Z,90.30
2022-09-15T02:44:33.940Z,90.30
2022-09-15T02:45:05.520Z,90.30
2022-09-15T02:45:37.122Z,90.30
2022-09-15T02:46:08.713Z,90.30
2022-09-15T02:46:40.307Z,90.30
2022-09-15T02:47:11.900Z,90.30
2022-09-15T02:47:43.436Z,90.30
2022-09-15T02:48:15.008Z,90.30
2022-09-15T02:48:46.560Z,90.30
2022-09-15T02:49:18.110Z,90.30
2022-09-15T02:49:49.657Z,90.30
2022-09-15T02:50:21.218Z,90.30
2022-09-15T02:50:52.787Z,90.30
2022-09-15T02:51:24.324Z,90.30
2022-09-15T02:51:55.863Z,90.30
2022-09-15T02:52:27.449Z,90.30
2022-09-15T02:52:59.001Z,90.30
2022-09-15T02:53:30.571Z,90.30
2022-09-15T02:54:02.135Z,90.30
2022-09-15T02:54:33.713Z,90.70
2022-09-15T02:55:05.260Z,90.30
2022-09-15T02:55:36.812Z,90.30
2022-09-15T02:56:08.357Z,90.30
2022-09-15T02:56:39.906Z,90.30
2022-09-15T02:57:11.448Z,90.30
2022-09-15T02:57:43.021Z,90.30
2022-09-15T02:58:14.569Z,90.30
2022-09-15T02:58:46.112Z,90.30
2022-09-15T02:59:17.669Z,90.30
2022-09-15T02:59:49.214Z,90.30
2022-09-15T03:00:20.759Z,90.30
2022-09-15T03:00:52.334Z,90.30
2022-09-15T03:01:23.945Z,90.30
2022-09-15T03:01:55.583Z,90.30
2022-09-15T03:02:27.218Z,90.30
2022-09-15T03:02:58.770Z,90.30
2022-09-15T03:03:30.335Z,90.30
2022-09-15T03:04:01.890Z,90.30
2022-09-15T03:04:33.471Z,90.30
2022-09-15T03:05:05.026Z,90.30
2022-09-15T03:05:36.582Z,90.30
2022-09-15T03:06:08.124Z,90.30
2022-09-15T03:06:39.671Z,90.20
2022-09-15T03:07:11.256Z,90.30
2022-09-15T03:07:42.804Z,90.20
2022-09-15T03:08:14.360Z,90.30
2022-09-15T03:08:45.912Z,90.30
2022-09-15T03:09:17.473Z,90.20
2022-09-15T03:09:49.024Z,90.20
2022-09-15T03:10:20.574Z,90.30
2022-09-15T03:10:52.129Z,90.30
2022-09-15T03:11:23.693Z,90.20
2022-09-15T03:11:55.249Z,90.30
2022-09-15T03:12:26.833Z,90.20
2022-09-15T03:12:58.389Z,90.20
2022-09-15T03:13:29.942Z,90.30
2022-09-15T03:14:01.479Z,90.20
2022-09-15T03:14:33.046Z,90.20
2022-09-15T03:15:04.590Z,90.20
2022-09-15T03:15:36.151Z,90.20
2022-09-15T03:16:07.747Z,90.20
2022-09-15T03:16:39.418Z,90.20
2022-09-15T03:17:11.004Z,90.30
2022-09-15T03:17:42.591Z,90.20
2022-09-15T03:18:14.204Z,90.20
2022-09-15T03:18:45.763Z,90.20
2022-09-15T03:19:17.345Z,90.30
2022-09-15T03:19:48.884Z,90.20
2022-09-15T03:20:20.430Z,90.30
2022-09-15T03:20:51.973Z,90.60
2022-09-15T03:21:23.521Z,90.30
2022-09-15T03:21:55.104Z,90.30
2022-09-15T03:22:26.648Z,90.30
2022-09-15T03:22:58.205Z,90.30
2022-09-15T03:23:29.749Z,90.30
2022-09-15T03:24:01.293Z,90.20
2022-09-15T03:24:32.860Z,90.20
2022-09-15T03:25:04.405Z,90.20
2022-09-15T03:25:35.893Z,90.20
2022-09-15T03:26:07.434Z,90.20
2022-09-15T03:26:39.047Z,90.20
2022-09-15T03:27:10.603Z,90.20
2022-09-15T03:27:42.151Z,90.20
2022-09-15T03:28:13.728Z,90.20
2022-09-15T03:28:45.291Z,90.20
2022-09-15T03:29:16.836Z,90.20
2022-09-15T03:29:48.388Z,90.20
2022-09-15T03:30:19.932Z,90.20
2022-09-15T03:30:51.468Z,90.20
2022-09-15T03:31:23.040Z,90.20
2022-09-15T03:31:54.680Z,90.20
2022-09-15T03:32:26.232Z,90.20
2022-09-15T03:32:57.803Z,90.20
2022-09-15T03:33:29.348Z,90.20
2022-09-15T03:34:00.893Z,90.20
2022-09-15T03:34:32.446Z,90.20
2022-09-15T03:35:03.990Z,90.20
2022-09-15T03:35:35.537Z,90.20
2022-09-15T03:36:07.093Z,90.20
2022-09-15T03:36:38.686Z,90.20
2022-09-15T03:37:10.240Z,90.20
2022-09-15T03:37:41.830Z,90.20
2022-09-15T03:38:13.383Z,90.20
2022-09-15T03:38:44.997Z,90.20
2022-09-15T03:39:16.639Z,90.20
2022-09-15T03:39:48.208Z,90.20
2022-09-15T03:40:19.827Z,90.20
2022-09-15T03:40:51.477Z,90.20
2022-09-15T03:41:23.028Z,90.20
2022-09-15T03:41:54.626Z,90.20
2022-09-15T03:42:26.179Z,90.30
2022-09-15T03:42:57.759Z,90.20
2022-09-15T03:43:29.321Z,90.20
2022-09-15T03:44:00.876Z,90.20
2022-09-15T03:44:32.449Z,90.20
2022-09-15T03:45:03.997Z,90.60
2022-09-15T03:45:35.579Z,90.20
2022-09-15T03:46:07.192Z,90.20
2022-09-15T03:46:38.791Z,90.20
2022-09-15T03:47:10.337Z,90.20
2022-09-15T03:47:41.928Z,90.20
2022-09-15T03:48:13.467Z,90.20
2022-09-15T03:48:45.006Z,90.20
2022-09-15T03:49:16.551Z,90.20
2022-09-15T03:49:48.122Z,90.20
2022-09-15T03:50:19.674Z,90.20
2022-09-15T03:50:51.218Z,90.20
2022-09-15T03:51:22.771Z,90.20
2022-09-15T03:51:54.323Z,90.20
2022-09-15T03:52:25.875Z,90.20
2022-09-15T03:52:58.884Z,90.20
2022-09-15T03:53:30.524Z,90.20
2022-09-15T03:54:02.084Z,90.20
2022-09-15T03:54:33.640Z,90.10
2022-09-15T03:55:05.207Z,90.20
2022-09-15T03:55:36.747Z,90.10
2022-09-15T03:56:08.301Z,90.10
2022-09-15T03:56:39.860Z,90.10
2022-09-15T03:57:11.457Z,90.20
2022-09-15T03:57:42.989Z,90.10
2022-09-15T03:58:14.549Z,90.20
2022-09-15T03:58:46.109Z,90.20
2022-09-15T03:59:17.653Z,90.20
2022-09-15T03:59:49.205Z,90.20
2022-09-15T04:00:20.758Z,90.20
2022-09-15T04:00:52.343Z,90.20
2022-09-15T04:01:23.952Z,90.10
2022-09-15T04:01:55.618Z,90.20
2022-09-15T04:02:27.273Z,90.20
2022-09-15T04:02:58.907Z,90.20
2022-09-15T04:03:30.467Z,90.20
2022-09-15T04:04:02.037Z,90.20
2022-09-15T04:04:33.587Z,90.20
2022-09-15T04:05:05.143Z,90.20
2022-09-15T04:05:36.697Z,90.20
2022-09-15T04:06:08.255Z,90.20
2022-09-15T04:06:39.853Z,90.20
2022-09-15T04:07:11.413Z,90.20
2022-09-15T04:07:42.986Z,90.20
2022-09-15T04:08:14.591Z,90.20
2022-09-15T04:08:46.148Z,90.20
2022-09-15T04:09:17.699Z,90.20
2022-09-15T04:09:49.241Z,90.20
2022-09-15T04:10:20.781Z,90.20
2022-09-15T04:10:52.326Z,90.20
2022-09-15T04:11:23.885Z,90.20
2022-09-15T04:11:55.429Z,90.20
2022-09-15T04:12:26.964Z,90.20
2022-09-15T04:12:58.515Z,90.20
2022-09-15T04:13:30.067Z,90.20
2022-09-15T04:14:01.635Z,90.20
2022-09-15T04:14:33.207Z,90.20
2022-09-15T04:15:04.759Z,90.20
2022-09-15T04:15:36.323Z,90.20
2022-09-15T04:16:07.914Z,90.20
2022-09-15T04:16:39.538Z,90.20
2022-09-15T04:17:11.147Z,90.20
2022-09-15T04:17:42.691Z,90.20
2022-09-15T04:18:14.236Z,90.20
2022-09-15T04:18:45.817Z,90.20
2022-09-15T04:19:17.364Z,90.20
2022-09-15T04:19:48.919Z,90.20
2022-09-15T04:20:20.468Z,90.20
2022-09-15T04:20:52.019Z,90.20
2022-09-15T04:21:23.553Z,90.10
2022-09-15T04:21:55.096Z,90.20
2022-09-15T04:22:26.649Z,90.20
2022-09-15T04:22:58.222Z,90.20
2022-09-15T04:23:29.769Z,90.10
2022-09-15T04:24:01.308Z,90.10
2022-09-15T04:24:32.877Z,90.10
2022-09-15T04:25:04.414Z,90.10
2022-09-15T04:25:35.971Z,90.10
2022-09-15T04:26:07.506Z,90.10
2022-09-15T04:26:39.062Z,90.10
2022-09-15T04:27:10.618Z,90.10
2022-09-15T04:27:42.179Z,90.10
2022-09-15T04:28:13.762Z,90.10
2022-09-15T04:28:45.310Z,90.10
2022-09-15T04:29:16.855Z,90.10
2022-09-15T04:29:48.399Z,90.10
2022-09-15T04:30:19.963Z,90.10
2022-09-15T04:30:51.519Z,90.10
2022-09-15T04:31:23.102Z,90.10
2022-09-15T04:31:54.769Z,90.10
2022-09-15T04:32:26.366Z,90.00
2022-09-15T04:32:57.913Z,90.00
2022-09-15T04:33:29.501Z,90.00
2022-09-15T04:34:01.060Z,90.00
2022-09-15T04:34:32.613Z,90.00
2022-09-15T04:35:04.176Z,90.00
2022-09-15T04:35:35.714Z,90.40
2022-09-15T04:36:07.266Z,90.10
2022-09-15T04:36:38.814Z,90.10
2022-09-15T04:37:10.350Z,90.10
2022-09-15T04:37:41.907Z,90.00
2022-09-15T04:38:13.450Z,90.00
2022-09-15T04:38:45.100Z,90.00
2022-09-15T04:39:16.650Z,90.00
2022-09-15T04:39:48.277Z,90.00
2022-09-15T04:40:19.869Z,90.00
2022-09-15T04:40:51.426Z,90.00
2022-09-15T04:41:22.972Z,90.00
2022-09-15T04:41:54.531Z,90.00
2022-09-15T04:42:26.167Z,90.00
2022-09-15T04:42:57.708Z,90.00
2022-09-15T04:43:29.256Z,90.10
2022-09-15T04:44:00.828Z,90.10
2022-09-15T04:44:32.388Z,90.10
2022-09-15T04:45:03.972Z,90.10
2022-09-15T04:45:35.592Z,90.10
2022-09-15T04:46:07.145Z,90.10
2022-09-15T04:46:38.720Z,90.10
2022-09-15T04:47:10.331Z,90.10
2022-09-15T04:47:41.889Z,90.00
2022-09-15T04:48:13.437Z,90.10
2022-09-15T04:48:44.981Z,90.00
2022-09-15T04:49:16.561Z,90.00
2022-09-15T04:49:48.112Z,90.00
2022-09-15T04:50:19.673Z,90.00
2022-09-15T04:50:51.215Z,90.00
2022-09-15T04:51:22.778Z,90.00
2022-09-15T04:51:54.478Z,90.00
2022-09-15T04:52:26.035Z,90.00
2022-09-15T04:52:57.568Z,90.00
2022-09-15T04:53:29.135Z,90.00
2022-09-15T04:54:00.695Z,90.00
2022-09-15T04:54:32.275Z,90.00
2022-09-15T04:55:03.823Z,90.00
2022-09-15T04:55:35.399Z,90.00
2022-09-15T04:56:06.968Z,90.00
2022-09-15T04:56:38.536Z,90.00
2022-09-15T04:57:10.076Z,90.00
2022-09-15T04:57:41.612Z,90.00
2022-09-15T04:58:13.165Z,90.00
2022-09-15T04:58:44.744Z,90.00
2022-09-15T04:59:16.292Z,90.00
2022-09-15T04:59:47.839Z,90.00
2022-09-15T05:00:19.397Z,90.00
2022-09-15T05:00:51.007Z,90.00
2022-09-15T05:01:22.712Z,90.00
2022-09-15T05:01:54.444Z,90.00
2022-09-15T05:02:26.080Z,90.00
2022-09-15T05:02:57.636Z,90.00
2022-09-15T05:03:29.219Z,90.00
2022-09-15T05:04:00.778Z,90.00
2022-09-15T05:04:32.345Z,90.30
2022-09-15T05:05:03.899Z,90.00
2022-09-15T05:05:35.447Z,90.00
2022-09-15T05:06:06.993Z,90.00
2022-09-15T05:06:38.531Z,90.00
2022-09-15T05:07:10.104Z,90.00
2022-09-15T05:07:41.653Z,90.00
2022-09-15T05:08:13.197Z,90.00
2022-09-15T05:08:44.766Z,90.00
2022-09-15T05:09:16.336Z,90.00
2022-09-15T05:09:47.907Z,90.00
2022-09-15T05:10:19.453Z,90.00
2022-09-15T05:10:51.006Z,90.00
2022-09-15T05:11:22.563Z,90.00
2022-09-15T05:11:54.117Z,90.00
2022-09-15T05:12:25.734Z,90.00
2022-09-15T05:12:57.270Z,90.00
2022-09-15T05:13:28.822Z,90.00
2022-09-15T05:14:00.365Z,90.00
2022-09-15T05:14:31.921Z,90.00
2022-09-15T05:15:03.473Z,90.00
2022-09-15T05:15:35.054Z,90.00
2022-09-15T05:16:06.644Z,90.00
2022-09-15T05:16:38.329Z,90.30
2022-09-15T05:17:09.919Z,90.00
2022-09-15T05:17:41.473Z,90.00
2022-09-15T05:18:13.018Z,90.00
2022-09-15T05:18:44.606Z,90.00
2022-09-15T05:19:16.156Z,90.00
2022-09-15T05:19:47.703Z,89.90
2022-09-15T05:20:19.248Z,90.00
2022-09-15T05:20:50.805Z,90.00
2022-09-15T05:21:22.360Z,90.00
2022-09-15T05:21:53.896Z,90.00
2022-09-15T05:22:25.440Z,90.00
2022-09-15T05:22:56.982Z,90.00
2022-09-15T05:23:28.529Z,90.00
2022-09-15T05:24:00.112Z,89.90
2022-09-15T05:24:31.691Z,89.90
2022-09-15T05:25:03.233Z,89.90
2022-09-15T05:25:34.770Z,89.90
2022-09-15T05:26:06.317Z,89.90
2022-09-15T05:26:37.874Z,89.90
2022-09-15T05:27:09.419Z,89.90
2022-09-15T05:27:40.965Z,89.70
2022-09-15T05:28:12.507Z,89.90
2022-09-15T05:28:44.093Z,89.80
2022-09-15T05:29:15.640Z,89.80
2022-09-15T05:29:47.268Z,89.80
2022-09-15T05:30:47.239Z,89.80
2022-09-15T05:31:10.427Z,89.70
2022-09-15T05:31:42.192Z,89.70
2022-09-15T05:32:13.772Z,89.70
2022-09-15T05:32:45.328Z,89.70
2022-09-15T05:33:16.880Z,89.70
2022-09-15T05:33:48.451Z,89.70
2022-09-15T05:34:19.991Z,89.70
2022-09-15T05:34:51.564Z,89.70
2022-09-15T05:35:23.096Z,89.60
2022-09-15T05:35:54.674Z,89.60
2022-09-15T05:36:26.218Z,89.70
2022-09-15T05:36:57.762Z,89.70
2022-09-15T05:37:29.306Z,89.70
2022-09-15T05:38:00.863Z,89.70
2022-09-15T05:38:32.422Z,89.70
2022-09-15T05:39:03.976Z,89.70
2022-09-15T05:39:35.544Z,89.80
2022-09-15T05:40:08.765Z,89.80
2022-09-15T05:40:40.443Z,89.80
2022-09-15T05:41:12.005Z,89.70
2022-09-15T05:41:43.596Z,89.70
2022-09-15T05:42:15.143Z,89.90
2022-09-15T05:42:46.697Z,89.70
2022-09-15T05:43:18.240Z,90.20
2022-09-15T05:43:49.807Z,89.70
2022-09-15T05:44:21.355Z,89.70
2022-09-15T05:44:52.917Z,89.70
2022-09-15T05:45:24.464Z,89.70
2022-09-15T05:45:56.011Z,89.70
2022-09-15T05:46:27.632Z,89.60
2022-09-15T05:46:59.361Z,89.60
2022-09-15T05:47:30.972Z,89.60
2022-09-15T05:48:02.526Z,89.70
2022-09-15T05:48:34.069Z,89.60
2022-09-15T05:49:05.618Z,89.60
2022-09-15T05:49:37.170Z,89.70
2022-09-15T05:50:08.730Z,89.70
2022-09-15T05:50:40.306Z,89.70
2022-09-15T05:51:11.859Z,89.70
2022-09-15T05:51:43.454Z,89.60
2022-09-15T05:52:15.026Z,89.60
2022-09-15T05:52:46.590Z,89.60
2022-09-15T05:53:18.159Z,89.60
2022-09-15T05:53:49.716Z,89.60
2022-09-15T05:54:21.305Z,89.60
2022-09-15T05:54:55.783Z,89.60
2022-09-15T05:55:30.455Z,89.50
2022-09-15T05:56:02.035Z,89.60
2022-09-15T05:56:33.592Z,89.60
2022-09-15T05:57:05.153Z,89.50
2022-09-15T05:57:36.697Z,89.50
2022-09-15T05:58:08.236Z,89.50
2022-09-15T05:58:39.785Z,89.60
2022-09-15T05:59:11.357Z,89.60
2022-09-15T05:59:42.911Z,89.60
2022-09-15T06:00:14.485Z,89.50
2022-09-15T06:00:46.055Z,89.60
2022-09-15T06:01:17.605Z,89.60
2022-09-15T06:01:49.182Z,89.60
2022-09-15T06:02:20.797Z,89.50
2022-09-15T06:02:52.470Z,89.50
2022-09-15T06:03:28.684Z,89.50
2022-09-15T06:04:01.702Z,89.60
2022-09-15T06:04:33.267Z,89.50
2022-09-15T06:05:04.815Z,89.50
2022-09-15T06:05:36.406Z,89.60
2022-09-15T06:06:07.978Z,89.50
2022-09-15T06:06:39.521Z,89.50
2022-09-15T06:07:11.103Z,89.50
2022-09-15T06:07:42.640Z,89.50
2022-09-15T06:08:14.188Z,89.50
2022-09-15T06:08:47.967Z,89.50
2022-09-15T06:09:19.848Z,89.50
2022-09-15T06:09:51.448Z,89.50
2022-09-15T06:10:23.000Z,89.50
2022-09-15T06:10:54.553Z,89.50
2022-09-15T06:11:26.114Z,89.50
2022-09-15T06:11:57.662Z,89.60
2022-09-15T06:12:29.213Z,89.60
2022-09-15T06:13:00.842Z,89.60
2022-09-15T06:13:32.408Z,89.60
2022-09-15T06:14:03.972Z,89.60
2022-09-15T06:14:35.525Z,89.60
2022-09-15T06:15:07.090Z,89.60
2022-09-15T06:15:38.642Z,89.60
2022-09-15T06:16:10.277Z,89.60
2022-09-15T06:16:41.859Z,89.60
2022-09-15T06:17:13.416Z,89.50
2022-09-15T06:17:44.956Z,89.60
2022-09-15T06:18:16.520Z,89.60
2022-09-15T06:18:48.098Z,89.60
2022-09-15T06:19:19.647Z,89.60
2022-09-15T06:19:51.200Z,89.60
2022-09-15T06:20:22.748Z,89.60
2022-09-15T06:20:54.312Z,89.60
2022-09-15T06:21:25.883Z,89.70
2022-09-15T06:21:57.433Z,89.60
2022-09-15T06:22:28.986Z,89.60
2022-09-15T06:23:00.540Z,89.60
2022-09-15T06:23:32.085Z,89.60
2022-09-15T06:24:03.620Z,89.60
2022-09-15T06:24:35.201Z,89.60
2022-09-15T06:25:06.749Z,89.50
2022-09-15T06:25:38.297Z,89.50
2022-09-15T06:26:09.845Z,89.50
2022-09-15T06:26:41.425Z,89.50
2022-09-15T06:27:12.991Z,89.50
2022-09-15T06:27:44.543Z,89.50
2022-09-15T06:28:16.090Z,89.40
2022-09-15T06:28:47.634Z,89.40
2022-09-15T06:29:19.203Z,89.40
2022-09-15T06:29:50.766Z,89.40
2022-09-15T06:30:22.309Z,89.40
2022-09-15T06:30:53.851Z,89.50
2022-09-15T06:31:25.476Z,89.50
2022-09-15T06:31:57.169Z,89.30
2022-09-15T06:32:28.765Z,89.30
2022-09-15T06:33:00.316Z,89.40
2022-09-15T06:33:31.883Z,89.40
2022-09-15T06:34:03.429Z,89.30
2022-09-15T06:34:34.981Z,89.30
2022-09-15T06:35:06.525Z,89.30
2022-09-15T06:35:38.093Z,89.30
2022-09-15T06:36:09.646Z,89.30
2022-09-15T06:36:41.186Z,89.40
2022-09-15T06:37:12.734Z,89.50
2022-09-15T06:37:44.290Z,89.50
2022-09-15T06:38:15.833Z,89.50
2022-09-15T06:38:47.383Z,89.50
2022-09-15T06:39:18.970Z,89.50
2022-09-15T06:39:50.553Z,89.50
2022-09-15T06:40:22.269Z,89.50
2022-09-15T06:40:53.871Z,89.50
2022-09-15T06:41:25.432Z,89.50
2022-09-15T06:42:02.727Z,89.50
2022-09-15T06:42:35.189Z,89.50
2022-09-15T06:43:06.776Z,89.50
2022-09-15T06:43:38.334Z,89.50
2022-09-15T06:44:09.889Z,89.50
2022-09-15T06:44:41.456Z,89.50
2022-09-15T06:45:13.009Z,89.50
2022-09-15T06:45:44.603Z,89.50
2022-09-15T06:46:16.206Z,89.50
2022-09-15T06:46:47.803Z,89.60
2022-09-15T06:47:19.362Z,89.60
2022-09-15T06:48:07.389Z,89.60